»·PEaware :: N404MB KBAM-KLOL

N404MB :: KBAM-KLOL

FLIGHT INFORMATION

Flight Status: Arrived
Operator: Privately registered:
United States
More flights under this callsign
Pilot: Marcel B. (12883)
Aircraft: PIPER PA-28 CHEROKEE ARCHER
(PA28)
More flights by this aircraft type
Origin: KBAM Battle Mountain
United States
Destination: KLOL Derby
United States
More flights between these airports :: More routes between these airports
Route:
File this flight plan on PilotEdge
Remarks:
Altitude:
(Current/Filed)
12,500ft
Speed:
(Current/Filed)
115kts
Departed: 20-Dec-17 12:07 AM
Arrived: 20-Dec-17 01:19 AM
Distance/Time
Traveled:
84nm/1:12
Distance/Time
To Go:
Arrived

Flight Plot

Page will automatically refresh every two minutes.

Flight plan parsing failed; only flown route is shown


Map Options




Map Legend


Flown Route
Filed Route
Departure Airport
Arrival Airport
Navaid (VOR, NDB)
Fix

Horizontal Profiles

Position Reports

Time Latitude Longitude Heading Altitude Ground
Speed
20-Dec-17 00:01 40.607167 -116.873680 262 4535ft 0kts
20-Dec-17 00:02 40.607167 -116.873680 262 4535ft 0kts
20-Dec-17 00:03 40.607167 -116.873680 262 4535ft 0kts
20-Dec-17 00:04 40.607167 -116.873680 262 4535ft 0kts
20-Dec-17 00:05 40.607167 -116.873680 262 4535ft 0kts
20-Dec-17 00:06 40.607167 -116.873680 262 4535ft 0kts
20-Dec-17 00:07 40.607167 -116.873680 262 4535ft 0kts
20-Dec-17 00:08 40.607167 -116.873680 262 4535ft 0kts
20-Dec-17 00:09 40.606820 -116.874181 203 4535ft 5kts
20-Dec-17 00:10 40.605829 -116.876640 261 4535ft 17kts
20-Dec-17 00:11 40.605382 -116.881209 263 4535ft 0kts
20-Dec-17 00:12 40.605382 -116.881209 263 4535ft 0kts
20-Dec-17 00:13 40.602793 -116.879454 139 4535ft 58kts
20-Dec-17 00:14 40.593618 -116.861276 51 5223ft 89kts
20-Dec-17 00:15 40.615001 -116.869787 304 5934ft 95kts
20-Dec-17 00:16 40.617090 -116.895143 225 6692ft 69kts
20-Dec-17 00:17 40.602028 -116.906647 190 7379ft 62kts
20-Dec-17 00:18 40.584093 -116.908950 200 7975ft 74kts
20-Dec-17 00:19 40.568581 -116.919689 256 8737ft 64kts
20-Dec-17 00:20 40.566534 -116.941037 255 9561ft 56kts
20-Dec-17 00:21 40.564591 -116.961224 254 10302ft 55kts
20-Dec-17 00:22 40.562763 -116.980266 253 11034ft 51kts
20-Dec-17 00:23 40.561039 -116.998267 252 11729ft 48kts
20-Dec-17 00:24 40.559562 -117.015331 252 12377ft 46kts
20-Dec-17 00:25 40.557932 -117.039346 256 12492ft 79kts
20-Dec-17 00:26 40.556028 -117.070070 256 12525ft 85kts
20-Dec-17 00:27 40.553900 -117.101576 255 12516ft 85kts
20-Dec-17 00:28 40.551634 -117.132329 255 12504ft 84kts
20-Dec-17 00:29 40.549250 -117.163028 255 12476ft 84kts
20-Dec-17 00:30 40.546811 -117.193568 255 12445ft 84kts
20-Dec-17 00:31 40.544349 -117.223914 255 12392ft 82kts
20-Dec-17 00:32 40.541946 -117.253205 254 12401ft 79kts
20-Dec-17 00:33 40.539572 -117.281747 254 12423ft 78kts
20-Dec-17 00:34 40.537160 -117.310481 254 12428ft 78kts
20-Dec-17 00:35 40.534746 -117.339122 254 12435ft 79kts
20-Dec-17 00:36 40.532322 -117.367831 254 12441ft 79kts
20-Dec-17 00:37 40.529891 -117.396547 254 12444ft 79kts
20-Dec-17 00:38 40.527455 -117.425245 254 12444ft 79kts
20-Dec-17 00:39 40.525012 -117.453941 254 12441ft 79kts
20-Dec-17 00:40 40.522567 -117.482581 254 12436ft 79kts
20-Dec-17 00:41 40.520097 -117.511424 254 12428ft 79kts
20-Dec-17 00:42 40.517635 -117.540094 254 12417ft 79kts
20-Dec-17 00:43 40.515158 -117.568848 254 12404ft 79kts
20-Dec-17 00:44 40.512671 -117.597650 254 12389ft 79kts
20-Dec-17 00:45 40.510182 -117.626381 254 12372ft 79kts
20-Dec-17 00:46 40.508375 -117.647188 254 12359ft 79kts
20-Dec-17 00:47 40.506059 -117.672568 254 12395ft 79kts
20-Dec-17 00:48 40.503076 -117.701114 253 12435ft 79kts
20-Dec-17 00:49 40.499599 -117.729442 252 12476ft 79kts
20-Dec-17 00:50 40.496008 -117.757897 252 12513ft 79kts
20-Dec-17 00:51 40.492382 -117.786376 252 12545ft 79kts
20-Dec-17 00:52 40.488733 -117.814774 252 12572ft 79kts
20-Dec-17 00:53 40.484782 -117.843614 246 12499ft 83kts
20-Dec-17 00:54 40.472218 -117.868667 238 12431ft 81kts
20-Dec-17 00:55 40.459930 -117.893270 239 12403ft 80kts
20-Dec-17 00:56 40.447865 -117.917658 239 12383ft 79kts
20-Dec-17 00:57 40.435987 -117.941771 239 12381ft 78kts
20-Dec-17 00:58 40.424317 -117.965507 239 12433ft 76kts
20-Dec-17 00:59 40.412733 -117.989152 239 12436ft 77kts
20-Dec-17 01:00 40.402980 -118.009058 239 12436ft 77kts
20-Dec-17 01:01 40.389352 -118.036875 239 12442ft 77kts
20-Dec-17 01:02 40.379673 -118.056627 239 12448ft 77kts
20-Dec-17 01:03 40.366192 -118.084130 239 12457ft 76kts
20-Dec-17 01:04 40.354630 -118.107701 239 12464ft 76kts
20-Dec-17 01:05 40.345071 -118.127177 239 12470ft 76kts
20-Dec-17 01:06 40.333571 -118.150593 239 12475ft 76kts
20-Dec-17 01:07 40.322107 -118.173921 239 12479ft 76kts
20-Dec-17 01:08 40.310585 -118.197263 239 12480ft 76kts
20-Dec-17 01:09 40.299108 -118.220575 239 12477ft 76kts
20-Dec-17 01:10 40.287848 -118.243486 239 12473ft 76kts
20-Dec-17 01:11 40.276451 -118.266664 239 12403ft 72kts
20-Dec-17 01:12 40.264923 -118.290527 241 11611ft 79kts
20-Dec-17 01:13 40.253031 -118.315480 243 10874ft 82kts
20-Dec-17 01:14 40.240906 -118.341359 245 10160ft 85kts
20-Dec-17 01:15 40.228537 -118.368262 246 9465ft 88kts
20-Dec-17 01:16 40.214342 -118.395377 244 8787ft 92kts
20-Dec-17 01:17 40.198782 -118.423023 244 8126ft 96kts
20-Dec-17 01:18 40.175838 -118.445089 218 7462ft 114kts
20-Dec-17 01:19 40.143488 -118.459419 212 6788ft 130kts
20-Dec-17 01:20 40.109870 -118.476089 211 6039ft 130kts
20-Dec-17 01:21 40.077376 -118.493165 207 5156ft 114kts
20-Dec-17 01:22 40.061710 -118.511322 288 4565ft 60kts
20-Dec-17 01:23 40.063951 -118.532431 277 4171ft 58kts
20-Dec-17 01:24 40.064105 -118.553461 278 3936ft 59kts
20-Dec-17 01:25 40.064211 -118.568373 274 3907ft 37kts
20-Dec-17 01:26 40.067842 -118.568348 31 3907ft 21kts
20-Dec-17 01:27 40.069811 -118.569263 306 3907ft 0kts
20-Dec-17 01:28 40.069811 -118.569263 306 3907ft 0kts
20-Dec-17 01:29 40.069811 -118.569263 306 3907ft 0kts
20-Dec-17 01:30 40.069811 -118.569263 306 3907ft 0kts
20-Dec-17 01:31 40.069811 -118.569263 306 3907ft 0kts
20-Dec-17 01:32 40.069811 -118.569263 306 3907ft 0kts
20-Dec-17 01:33 40.069811 -118.569263 306 3907ft 0kts
20-Dec-17 01:34 40.069811 -118.569263 306 3907ft 0kts
20-Dec-17 01:35 40.069811 -118.569263 306 3907ft 0kts
20-Dec-17 01:36 40.069811 -118.569263 306 3907ft 0kts
20-Dec-17 01:37 40.069811 -118.569263 306 3907ft 0kts
20-Dec-17 01:38 40.069811 -118.569263 306 3907ft 0kts
20-Dec-17 01:39 40.069811 -118.569263 306 3907ft 0kts

Navigation Log

Ident Type
Flight plan parsing failed, navigation log unavailable